Time;durP1;ratioP1;P1;durP2;ratioP2;P2;SDS_P1;SDS_P2;PMS_P1;PMS_P2;Temp;Humidity;BMP_temperature;BMP_pressure;BME280_temperature;BME280_humidity;BME280_pressure;Samples;Min_cycle;Max_cycle;Signal;HPM_P1;HPM_P2
2023/01/31 00:01:23;;;;;;;19.23;2.60;;;;;;;2.73;100.00;102161.47;5030788;28;20580;-83
2023/01/31 00:03:54;;;;;;;17.80;4.25;;;;;;;2.64;100.00;102161.72;5040609;28;20142;-83
2023/01/31 00:06:27;;;;;;;21.45;3.00;;;;;;;2.50;100.00;102156.66;5057040;28;20025;-83
2023/01/31 00:08:53;;;;;;;23.65;3.13;;;;;;;2.39;100.00;102135.31;5034463;28;20033;-83
2023/01/31 00:11:21;;;;;;;25.63;2.97;;;;;;;2.48;100.00;102174.72;5035303;28;20025;-83
2023/01/31 00:13:47;;;;;;;25.27;3.15;;;;;;;2.39;100.00;102156.91;5075747;28;20093;-82
2023/01/31 00:16:14;;;;;;;21.30;3.35;;;;;;;2.46;100.00;102165.78;5062136;28;20087;-82
2023/01/31 00:18:40;;;;;;;29.08;3.78;;;;;;;2.52;100.00;102164.72;5059836;28;20066;-82
2023/01/31 00:21:07;;;;;;;24.83;3.33;;;;;;;2.44;100.00;102169.41;5051474;28;20025;-82
2023/01/31 00:23:32;;;;;;;21.88;3.03;;;;;;;2.49;100.00;102162.09;5049376;28;20121;-82
2023/01/31 00:26:17;;;;;;;23.65;3.60;;;;;;;2.33;100.00;102143.56;5025068;28;20104;-83
2023/01/31 00:28:44;;;;;;;27.48;3.08;;;;;;;2.48;100.00;102165.72;5055229;28;20038;-82
2023/01/31 00:31:12;;;;;;;27.42;4.30;;;;;;;2.47;100.00;102178.34;5042554;28;20068;-82
2023/01/31 00:33:39;;;;;;;28.80;3.90;;;;;;;2.45;100.00;102161.28;5070797;28;20029;-82
2023/01/31 00:36:07;;;;;;;19.23;3.45;;;;;;;2.56;100.00;102171.84;5012508;28;20052;-82
2023/01/31 00:38:33;;;;;;;25.17;3.78;;;;;;;2.60;100.00;102167.25;5041903;28;20069;-82
2023/01/31 00:40:59;;;;;;;18.00;3.25;;;;;;;2.56;100.00;102169.13;5072586;28;20060;-82
2023/01/31 00:43:25;;;;;;;20.77;2.92;;;;;;;2.53;100.00;102175.50;5023618;28;20030;-82
2023/01/31 00:45:51;;;;;;;23.58;4.28;;;;;;;2.52;100.00;102172.81;5073447;28;20111;-82
2023/01/31 00:48:16;;;;;;;41.72;5.35;;;;;;;2.56;100.00;102164.63;5058719;28;20037;-82
2023/01/31 00:50:41;;;;;;;27.20;3.67;;;;;;;2.62;100.00;102176.19;5041188;28;20033;-83
2023/01/31 00:53:07;;;;;;;23.48;3.38;;;;;;;2.63;100.00;102175.28;5031335;28;20129;-82
2023/01/31 00:55:33;;;;;;;21.65;2.70;;;;;;;2.72;100.00;102178.66;5039742;28;20037;-83
2023/01/31 00:58:00;;;;;;;24.23;3.70;;;;;;;2.70;100.00;102166.97;5040289;28;20029;-83
2023/01/31 01:00:25;;;;;;;32.58;3.90;;;;;;;2.59;100.00;102166.34;5024368;28;20048;-83
2023/01/31 01:02:51;;;;;;;30.85;4.28;;;;;;;2.60;100.00;102165.41;5033473;28;20506;-83
2023/01/31 01:05:17;;;;;;;19.08;3.67;;;;;;;2.62;100.00;102163.56;5036386;28;20033;-83
2023/01/31 01:07:42;;;;;;;21.55;3.05;;;;;;;2.67;100.00;102163.44;5021878;28;20132;-83
2023/01/31 01:10:08;;;;;;;25.23;3.60;;;;;;;2.68;100.00;102170.66;5040156;28;20041;-83
2023/01/31 01:12:34;;;;;;;21.45;3.38;;;;;;;2.70;100.00;102174.19;5072614;28;20214;-83
2023/01/31 01:14:59;;;;;;;22.05;3.58;;;;;;;2.65;100.00;102165.31;5040007;28;20060;-83
2023/01/31 01:17:25;;;;;;;25.90;3.67;;;;;;;2.62;100.00;102168.97;5003581;28;20117;-83
2023/01/31 01:19:50;;;;;;;26.83;3.90;;;;;;;2.56;100.00;102169.13;5020105;28;20124;-82
2023/01/31 01:22:16;;;;;;;23.52;5.43;;;;;;;2.53;100.00;102148.47;5022585;28;20093;-82
2023/01/31 01:24:42;;;;;;;22.67;3.95;;;;;;;2.50;100.00;102145.84;5029032;28;20037;-82
2023/01/31 01:27:08;;;;;;;16.42;3.78;;;;;;;2.56;100.00;102156.50;5056338;28;20043;-83
2023/01/31 01:29:34;;;;;;;27.70;3.35;;;;;;;2.50;100.00;102144.94;5047439;28;20152;-83
2023/01/31 01:32:00;;;;;;;29.67;3.20;;;;;;;2.49;100.00;102141.38;5037571;28;20061;-83
2023/01/31 01:34:25;;;;;;;19.95;3.65;;;;;;;2.48;100.00;102141.41;5019925;28;20092;-83
2023/01/31 01:36:51;;;;;;;18.88;3.78;;;;;;;2.41;100.00;102132.56;5047447;28;20132;-83
2023/01/31 01:39:17;;;;;;;18.88;3.65;;;;;;;2.44;100.00;102124.34;5030234;28;20099;-83
2023/01/31 01:41:43;;;;;;;23.05;3.42;;;;;;;2.40;100.00;102119.97;5044800;28;20064;-83
2023/01/31 01:44:47;;;;;;;17.05;3.30;;;;;;;2.39;100.00;102121.78;5031114;28;20021;-83
2023/01/31 01:47:41;;;;;;;21.08;4.72;;;;;;;2.46;100.00;102127.00;5036981;28;20065;-83
2023/01/31 01:50:10;;;;;;;22.38;3.30;;;;;;;2.47;100.00;102121.56;5036378;28;20072;-83
2023/01/31 01:52:42;;;;;;;31.08;4.70;;;;;;;2.46;100.00;102117.13;5024427;28;20037;-83
2023/01/31 01:55:32;;;;;;;22.83;4.07;;;;;;;2.43;100.00;102118.97;5039883;28;20061;-82
2023/01/31 01:58:06;;;;;;;22.75;4.22;;;;;;;2.50;100.00;102116.09;5040259;28;20079;-83
2023/01/31 02:00:34;;;;;;;21.30;3.40;;;;;;;2.42;100.00;102112.69;5038882;28;20038;-82
2023/01/31 02:03:03;;;;;;;25.40;4.43;;;;;;;2.46;100.00;102124.31;5035191;28;20021;-82
2023/01/31 02:05:37;;;;;;;28.63;3.90;;;;;;;2.45;100.00;102127.97;5039100;28;20037;-82
2023/01/31 02:08:02;;;;;;;21.00;3.80;;;;;;;2.53;100.00;102126.84;5037378;28;20421;-82
2023/01/31 02:10:40;;;;;;;16.55;4.40;;;;;;;2.56;100.00;102121.34;5019122;28;20094;-82
2023/01/31 02:13:07;;;;;;;27.30;4.63;;;;;;;2.58;100.00;102114.09;5040193;28;20077;-82
2023/01/31 02:15:33;;;;;;;28.52;5.20;;;;;;;2.61;100.00;102126.66;5038688;28;20095;-83
2023/01/31 02:17:59;;;;;;;30.50;4.30;;;;;;;2.59;100.00;102128.47;5021058;28;20037;-83
2023/01/31 02:21:03;;;;;;;28.30;4.90;;;;;;;2.65;100.00;102131.03;5055134;28;20444;-82
2023/01/31 02:23:40;;;;;;;24.85;4.38;;;;;;;2.63;100.00;102135.59;5037161;28;20037;-82
2023/01/31 02:26:08;;;;;;;34.60;4.35;;;;;;;2.65;100.00;102132.88;5020092;28;20037;-82
2023/01/31 02:28:34;;;;;;;28.27;5.00;;;;;;;2.69;100.00;102145.38;5040659;28;20053;-82
2023/01/31 02:31:19;;;;;;;28.65;4.90;;;;;;;2.63;100.00;102150.94;5043213;28;20029;-83
2023/01/31 02:34:13;;;;;;;38.00;4.97;;;;;;;2.59;100.00;102147.41;5039355;28;20084;-82
2023/01/31 02:37:03;;;;;;;26.70;5.15;;;;;;;2.58;100.00;102160.03;5032910;28;20132;-82
2023/01/31 02:39:42;;;;;;;25.42;5.25;;;;;;;2.53;100.00;102159.28;5039764;28;20036;-83
2023/01/31 02:42:23;;;;;;;22.35;5.53;;;;;;;2.47;100.00;102162.13;5039371;28;20029;-83
2023/01/31 02:45:00;;;;;;;30.02;5.28;;;;;;;2.51;100.00;102158.44;5046400;28;20044;-83
2023/01/31 02:47:47;;;;;;;26.38;5.93;;;;;;;2.56;100.00;102152.91;5021790;28;20029;-82
2023/01/31 02:50:23;;;;;;;25.90;5.28;;;;;;;2.57;100.00;102157.38;5022558;28;20030;-82
2023/01/31 02:53:11;;;;;;;35.05;5.88;;;;;;;2.58;100.00;102157.34;5054630;28;20053;-83
2023/01/31 02:56:13;;;;;;;24.40;6.13;;;;;;;2.63;100.00;102151.81;5019328;28;20049;-83
2023/01/31 02:58:43;;;;;;;27.42;5.68;;;;;;;2.59;100.00;102139.28;5025554;28;20542;-83
2023/01/31 03:01:18;;;;;;;28.67;6.35;;;;;;;2.64;100.00;102136.47;5035679;28;20112;-83
2023/01/31 03:03:43;;;;;;;32.40;7.00;;;;;;;2.60;100.00;102116.75;5046462;28;20031;-83
2023/01/31 03:06:35;;;;;;;27.27;5.93;;;;;;;2.68;100.00;102122.84;5048766;28;20036;-82
2023/01/31 03:09:23;;;;;;;26.15;7.25;;;;;;;2.80;100.00;102120.75;5064762;28;20067;-83
2023/01/31 03:12:17;;;;;;;28.33;7.68;;;;;;;2.86;100.00;102120.59;5047721;28;20045;-83
2023/01/31 03:15:01;;;;;;;31.02;6.20;;;;;;;2.86;100.00;102115.19;5030928;28;20021;-82
2023/01/31 03:17:33;;;;;;;41.63;8.02;;;;;;;2.92;100.00;102118.63;5045668;28;20041;-82
2023/01/31 03:20:17;;;;;;;25.17;6.90;;;;;;;2.95;100.00;102117.63;5048635;28;20562;-82
2023/01/31 03:22:57;;;;;;;39.70;8.60;;;;;;;3.02;100.00;102116.56;5073189;28;20026;-83
2023/01/31 03:25:26;;;;;;;42.10;9.63;;;;;;;2.99;100.00;102107.66;5046949;28;20065;-82
2023/01/31 03:27:56;;;;;;;24.23;7.25;;;;;;;2.99;100.00;102107.66;5047017;28;20033;-83
2023/01/31 03:30:34;;;;;;;39.17;9.70;;;;;;;2.92;100.00;102094.28;5033462;28;20041;-82
2023/01/31 03:33:07;;;;;;;34.55;9.93;;;;;;;2.98;100.00;102095.91;5033912;28;20029;-83
2023/01/31 03:35:37;;;;;;;45.03;10.55;;;;;;;3.04;100.00;102093.03;5039838;28;20068;-83
2023/01/31 03:38:30;;;;;;;47.88;11.80;;;;;;;3.03;100.00;102082.25;5038312;28;20048;-82
2023/01/31 03:41:02;;;;;;;42.77;11.57;;;;;;;3.08;100.00;102091.13;5035541;28;20041;-83
2023/01/31 03:43:36;;;;;;;31.93;10.43;;;;;;;3.16;100.00;102093.63;5029684;28;20152;-83
2023/01/31 03:46:15;;;;;;;38.53;12.35;;;;;;;3.18;100.00;102092.69;5004471;28;20103;-82
2023/01/31 03:48:45;;;;;;;42.90;13.00;;;;;;;3.13;100.00;102087.38;5043842;28;20455;-82
2023/01/31 03:51:18;;;;;;;36.05;14.75;;;;;;;3.07;100.00;102073.16;5032258;28;20034;-82
2023/01/31 03:53:55;;;;;;;32.90;12.60;;;;;;;3.07;100.00;102076.72;5049690;28;20053;-82
2023/01/31 03:56:31;;;;;;;39.53;13.18;;;;;;;3.10;100.00;102087.47;5063600;28;20029;-82
2023/01/31 03:59:02;;;;;;;36.65;13.77;;;;;;;3.02;100.00;102078.69;5050202;28;20044;-82
2023/01/31 04:01:33;;;;;;;40.83;13.90;;;;;;;3.09;100.00;102076.69;5041109;28;20038;-82
2023/01/31 04:04:36;;;;;;;57.42;16.92;;;;;;;3.09;100.00;102084.81;5032283;28;20464;-82
2023/01/31 04:07:01;;;;;;;41.13;14.25;;;;;;;3.06;100.00;102074.06;5041315;28;20061;-82
2023/01/31 04:09:27;;;;;;;34.03;14.43;;;;;;;3.02;100.00;102084.09;5051893;28;20033;-82
2023/01/31 04:11:52;;;;;;;37.53;14.60;;;;;;;3.09;100.00;102074.00;5053806;28;20127;-82
2023/01/31 04:14:19;;;;;;;51.63;16.17;;;;;;;3.05;100.00;102070.50;5021120;28;20041;-82
2023/01/31 04:16:44;;;;;;;52.42;16.27;;;;;;;3.06;100.00;102063.25;5067478;28;20029;-83
2023/01/31 04:19:10;;;;;;;43.50;15.77;;;;;;;3.11;100.00;102056.75;5012728;28;20037;-83
2023/01/31 04:21:35;;;;;;;48.00;14.70;;;;;;;2.99;100.00;102040.00;5019682;28;20040;-82
2023/01/31 04:24:01;;;;;;;42.40;14.77;;;;;;;3.01;100.00;102049.84;5054415;28;20088;-83
2023/01/31 04:26:26;;;;;;;43.22;14.07;;;;;;;3.12;100.00;102060.38;5047650;28;20037;-83
2023/01/31 04:28:52;;;;;;;47.15;14.48;;;;;;;3.02;100.00;102039.94;5004908;28;20068;-83
2023/01/31 04:31:17;;;;;;;49.55;14.05;;;;;;;3.15;100.00;102054.88;5032255;28;20124;-83
2023/01/31 04:33:43;;;;;;;50.63;14.95;;;;;;;3.14;100.00;102069.31;4999382;28;20034;-83
2023/01/31 04:36:09;;;;;;;43.45;15.00;;;;;;;3.07;100.00;102054.22;5046074;28;20391;-83
2023/01/31 04:38:35;;;;;;;45.05;14.57;;;;;;;3.01;100.00;102057.09;5005157;28;20032;-83
2023/01/31 04:41:00;;;;;;;39.88;13.80;;;;;;;3.02;100.00;102048.94;5027607;28;20112;-83
2023/01/31 04:43:26;;;;;;;36.50;12.43;;;;;;;2.99;100.00;102050.84;5015579;28;20060;-83
2023/01/31 04:45:51;;;;;;;38.40;14.13;;;;;;;2.97;100.00;102049.97;5013537;28;20038;-83
2023/01/31 04:48:16;;;;;;;48.55;14.05;;;;;;;3.00;100.00;102049.88;5004502;28;20033;-83
2023/01/31 04:50:42;;;;;;;31.58;11.65;;;;;;;3.05;100.00;102050.63;5045248;28;20128;-83
2023/01/31 04:53:07;;;;;;;44.97;14.43;;;;;;;2.96;100.00;102040.97;5000023;28;20044;-83
2023/01/31 04:55:34;;;;;;;36.25;13.30;;;;;;;2.92;100.00;102048.28;5032374;28;20033;-83
2023/01/31 04:58:00;;;;;;;41.53;12.15;;;;;;;3.01;100.00;102057.97;5031576;28;20030;-83
2023/01/31 05:00:26;;;;;;;32.63;11.48;;;;;;;2.95;100.00;102055.41;5032912;28;20043;-82
2023/01/31 05:02:52;;;;;;;43.28;11.35;;;;;;;2.95;100.00;102058.13;5032072;28;20029;-83
2023/01/31 05:05:18;;;;;;;44.25;12.10;;;;;;;2.97;100.00;102047.25;5038672;28;20029;-83
2023/01/31 05:07:44;;;;;;;39.28;11.32;;;;;;;3.03;100.00;102044.38;5027168;28;20060;-82
2023/01/31 05:10:09;;;;;;;43.38;11.45;;;;;;;2.92;100.00;102037.47;5044886;28;20119;-82
2023/01/31 05:12:35;;;;;;;38.17;11.07;;;;;;;2.84;100.00;102035.94;5041079;28;20034;-83
2023/01/31 05:15:00;;;;;;;38.97;10.90;;;;;;;2.75;100.00;102024.44;5053436;28;20048;-82
2023/01/31 05:17:28;;;;;;;35.97;10.32;;;;;;;2.81;100.00;102028.78;5034255;28;20067;-83
2023/01/31 05:19:57;;;;;;;38.70;10.55;;;;;;;2.82;100.00;102024.25;5047482;28;20113;-83
2023/01/31 05:22:22;;;;;;;39.75;10.60;;;;;;;2.72;100.00;102011.00;5019168;28;20125;-83
2023/01/31 05:24:49;;;;;;;35.33;10.48;;;;;;;2.76;100.00;102015.38;5023106;28;20057;-82
2023/01/31 05:27:15;;;;;;;37.20;11.52;;;;;;;2.69;100.00;102011.06;5008544;28;20517;-83
2023/01/31 05:29:41;;;;;;;31.88;8.43;;;;;;;2.81;100.00;102017.06;5038875;28;20064;-83
2023/01/31 05:32:07;;;;;;;30.70;9.90;;;;;;;2.86;100.00;102002.47;5010359;28;20033;-83
2023/01/31 05:34:33;;;;;;;26.17;8.45;;;;;;;2.83;100.00;101993.56;5035564;28;20455;-84
2023/01/31 05:36:59;;;;;;;24.13;7.82;;;;;;;2.92;100.00;102002.31;4993065;28;20033;-84
2023/01/31 05:39:25;;;;;;;34.47;8.77;;;;;;;2.92;100.00;102004.13;5005820;28;20727;-84
2023/01/31 05:41:51;;;;;;;40.95;10.30;;;;;;;2.94;100.00;102010.38;5020539;28;20121;-82
2023/01/31 05:44:17;;;;;;;44.28;9.05;;;;;;;3.02;100.00;101999.34;5034972;28;20033;-81
2023/01/31 05:46:43;;;;;;;27.10;8.65;;;;;;;2.95;100.00;102006.72;5020248;28;20034;-81
2023/01/31 05:49:08;;;;;;;29.27;8.82;;;;;;;3.08;100.00;102015.38;5061750;28;20091;-80
2023/01/31 05:51:34;;;;;;;37.97;10.45;;;;;;;3.11;100.00;102013.47;5019158;28;20408;-82
2023/01/31 05:53:59;;;;;;;28.10;9.10;;;;;;;3.17;100.00;102009.72;5002520;28;20030;-81
2023/01/31 05:56:25;;;;;;;40.97;9.60;;;;;;;3.15;100.00;101999.84;5036313;28;20136;-78
2023/01/31 05:58:50;;;;;;;35.42;8.73;;;;;;;3.17;100.00;102000.72;5037766;28;20037;-81
2023/01/31 06:01:21;;;;;;;35.78;8.60;;;;;;;3.21;100.00;101991.56;5003959;28;20037;-81
2023/01/31 06:03:46;;;;;;;37.42;9.20;;;;;;;3.24;100.00;102003.16;5018823;28;20117;-80
2023/01/31 06:06:12;;;;;;;38.22;9.25;;;;;;;3.21;100.00;101994.25;5072263;28;20068;-80
2023/01/31 06:08:38;;;;;;;33.75;9.30;;;;;;;3.16;100.00;101980.88;5065590;28;20034;-80
2023/01/31 06:11:04;;;;;;;33.20;8.80;;;;;;;3.15;100.00;101978.19;5031664;28;20038;-80
2023/01/31 06:13:33;;;;;;;30.33;10.38;;;;;;;3.19;100.00;101979.91;5040625;28;20049;-80
2023/01/31 06:15:59;;;;;;;26.80;7.57;;;;;;;3.24;100.00;102000.47;5007469;28;20084;-80
2023/01/31 06:18:25;;;;;;;22.88;7.47;;;;;;;3.22;100.00;101993.34;5012067;28;20052;-80
2023/01/31 06:20:52;;;;;;;34.97;9.10;;;;;;;3.25;100.00;101993.25;5043218;28;20437;-80
2023/01/31 06:23:18;;;;;;;26.42;8.45;;;;;;;3.24;100.00;102003.16;5047052;28;20033;-80
2023/01/31 06:25:43;;;;;;;22.52;8.77;;;;;;;3.17;100.00;102006.13;5046226;28;20044;-80
2023/01/31 06:28:09;;;;;;;29.80;9.38;;;;;;;3.06;100.00;101999.19;5026044;28;20064;-80
2023/01/31 06:30:35;;;;;;;31.42;9.35;;;;;;;3.06;100.00;101995.59;5023870;28;20034;-80
2023/01/31 06:33:01;;;;;;;40.50;10.93;;;;;;;3.16;100.00;102012.47;5043496;28;20038;-81
2023/01/31 06:35:26;;;;;;;35.72;10.05;;;;;;;3.12;100.00;102007.13;5073497;28;20079;-82
2023/01/31 06:37:54;;;;;;;27.15;8.70;;;;;;;3.16;100.00;102004.34;5037334;28;20041;-80
2023/01/31 06:40:19;;;;;;;34.45;11.00;;;;;;;3.19;100.00;102017.78;5031004;28;20034;-80
2023/01/31 06:42:45;;;;;;;28.23;9.43;;;;;;;3.22;100.00;102017.69;5044632;28;20033;-80
2023/01/31 06:45:10;;;;;;;29.98;8.70;;;;;;;3.20;100.00;102006.91;5027836;28;20400;-79
2023/01/31 06:47:36;;;;;;;19.65;8.57;;;;;;;3.09;100.00;101987.41;5044375;28;20070;-80
2023/01/31 06:50:01;;;;;;;38.08;11.95;;;;;;;3.14;100.00;102007.09;5039855;28;20092;-78
2023/01/31 06:52:26;;;;;;;32.40;9.63;;;;;;;3.18;100.00;102007.88;5027373;28;20032;-78
2023/01/31 06:54:52;;;;;;;39.72;10.43;;;;;;;3.13;100.00;102003.50;5025124;28;20042;-80
2023/01/31 06:57:17;;;;;;;33.92;10.23;;;;;;;3.18;100.00;101984.44;5033379;28;20034;-79
2023/01/31 06:59:42;;;;;;;32.15;8.88;;;;;;;3.16;100.00;101986.28;5023267;28;20045;-80
2023/01/31 07:02:10;;;;;;;29.98;9.02;;;;;;;3.17;100.00;101979.94;5017378;28;20045;-82
2023/01/31 07:04:35;;;;;;;41.55;11.13;;;;;;;3.23;100.00;101982.47;5060524;28;20858;-79
2023/01/31 07:07:01;;;;;;;30.35;9.57;;;;;;;3.21;100.00;101973.50;5024491;28;20036;-79
2023/01/31 07:09:27;;;;;;;32.05;8.88;;;;;;;3.23;100.00;101971.66;5038252;28;20102;-80
2023/01/31 07:11:52;;;;;;;37.35;10.05;;;;;;;3.25;100.00;101968.91;5061217;28;20026;-79
2023/01/31 07:14:18;;;;;;;36.22;9.02;;;;;;;3.32;100.00;101981.28;5044790;28;20038;-80
2023/01/31 07:16:43;;;;;;;33.75;8.77;;;;;;;3.36;100.00;101983.00;5047801;28;20041;-79
2023/01/31 07:19:08;;;;;;;32.67;8.18;;;;;;;3.36;100.00;101974.88;5034126;28;20022;-80
2023/01/31 07:21:35;;;;;;;38.42;10.02;;;;;;;3.43;100.00;101971.03;5016887;28;20086;-80
2023/01/31 07:24:01;;;;;;;29.23;8.75;;;;;;;3.45;100.00;101965.56;5050942;28;20029;-80
2023/01/31 07:26:27;;;;;;;37.75;9.27;;;;;;;3.37;100.00;101968.50;5050762;28;20640;-80
2023/01/31 07:28:52;;;;;;;25.38;7.68;;;;;;;3.36;100.00;101953.22;5051417;28;20053;-80
2023/01/31 07:31:18;;;;;;;23.88;8.98;;;;;;;3.43;100.00;101964.75;5017945;28;20021;-80
2023/01/31 07:33:43;;;;;;;23.90;7.57;;;;;;;3.37;100.00;101962.22;5057783;28;20044;-80
2023/01/31 07:36:12;;;;;;;21.08;7.35;;;;;;;3.43;100.00;101971.03;5036660;28;20078;-80
2023/01/31 07:38:38;;;;;;;29.33;8.90;;;;;;;3.42;100.00;101974.66;5033229;28;20056;-79
2023/01/31 07:41:04;;;;;;;30.17;7.65;;;;;;;3.43;100.00;101965.63;5036740;28;20042;-80
2023/01/31 07:43:31;;;;;;;31.30;7.75;;;;;;;3.50;100.00;101963.59;5065277;28;20049;-80
2023/01/31 07:45:57;;;;;;;33.55;8.93;;;;;;;3.54;100.00;101950.84;5040078;28;20032;-80
2023/01/31 07:48:22;;;;;;;29.45;8.63;;;;;;;3.53;100.00;101958.09;5050194;28;20013;-80
2023/01/31 07:50:52;;;;;;;26.25;7.18;;;;;;;3.60;100.00;101966.91;5035412;28;20104;-80
2023/01/31 07:53:18;;;;;;;26.50;7.72;;;;;;;3.57;100.00;101945.31;5035110;28;20104;-80
2023/01/31 07:55:47;;;;;;;32.22;8.18;;;;;;;3.63;100.00;101955.97;5056168;28;20064;-81
2023/01/31 07:58:14;;;;;;;19.85;6.45;;;;;;;3.63;100.00;101948.72;5055618;28;20028;-80
2023/01/31 08:03:33;;;;;;;25.65;6.40;;;;;;;3.76;100.00;101946.50;5069552;28;20443;-81
2023/01/31 08:06:10;;;;;;;29.25;6.50;;;;;;;3.77;100.00;101948.28;5058557;28;20041;-81
2023/01/31 08:08:36;;;;;;;27.50;5.80;;;;;;;3.81;100.00;101949.06;5035821;28;20029;-81
2023/01/31 08:11:05;;;;;;;20.73;5.07;;;;;;;3.88;100.00;101933.50;5042880;28;20034;-81
2023/01/31 08:13:32;;;;;;;23.80;5.03;;;;;;;3.89;100.00;101925.31;5048773;28;20089;-81
2023/01/31 08:15:58;;;;;;;20.92;6.07;;;;;;;3.89;100.00;101916.28;5036745;28;20033;-81
2023/01/31 08:18:24;;;;;;;24.90;5.43;;;;;;;3.91;100.00;101911.72;5070267;28;20033;-81
2023/01/31 08:20:49;;;;;;;33.70;6.68;;;;;;;3.95;100.00;101903.44;5056678;28;20052;-81
2023/01/31 08:23:15;;;;;;;11.98;3.72;;;;;;;4.02;100.00;101912.22;5045495;28;20491;-81
2023/01/31 08:25:40;;;;;;;22.45;4.47;;;;;;;4.06;100.00;101908.47;5034796;28;20048;-81
2023/01/31 08:28:06;;;;;;;28.33;5.20;;;;;;;4.11;100.00;101898.34;5052538;28;20336;-81
2023/01/31 08:30:32;;;;;;;21.80;5.95;;;;;;;4.19;100.00;101904.38;5051597;28;20033;-81
2023/01/31 08:32:57;;;;;;;18.98;4.72;;;;;;;4.28;100.00;101919.44;5050967;28;20034;-81
2023/01/31 08:35:25;;;;;;;13.40;4.72;;;;;;;4.29;100.00;101904.06;5039715;28;20050;-81
2023/01/31 08:37:51;;;;;;;29.13;5.53;;;;;;;4.37;100.00;101894.69;5034418;28;20493;-81
2023/01/31 08:40:16;;;;;;;19.80;4.72;;;;;;;4.38;100.00;101898.31;5029459;28;20037;-81
2023/01/31 08:42:42;;;;;;;19.20;4.07;;;;;;;4.39;100.00;101898.25;5052283;28;20120;-81
2023/01/31 08:45:08;;;;;;;22.85;3.95;;;;;;;4.44;100.00;101906.19;5034403;28;20053;-81
2023/01/31 08:47:33;;;;;;;16.98;3.88;;;;;;;4.55;100.00;101900.41;5051328;28;20037;-80
2023/01/31 08:50:00;;;;;;;23.90;4.25;;;;;;;4.54;100.00;101891.38;5042927;28;20046;-78
2023/01/31 08:52:25;;;;;;;17.65;4.15;;;;;;;4.60;100.00;101892.97;5008636;28;20029;-78
2023/01/31 08:54:50;;;;;;;18.25;3.65;;;;;;;4.65;100.00;101884.66;5047561;28;20055;-78
2023/01/31 08:57:16;;;;;;;13.55;3.60;;;;;;;4.67;100.00;101886.34;5030804;28;20064;-78
2023/01/31 08:59:41;;;;;;;19.40;4.45;;;;;;;4.76;100.00;101896.00;5022206;28;20068;-78
2023/01/31 09:02:10;;;;;;;10.85;2.95;;;;;;;4.72;100.00;101899.75;5024266;28;20045;-78
2023/01/31 09:04:35;;;;;;;14.98;4.20;;;;;;;4.78;100.00;101896.81;5043090;28;20084;-79
2023/01/31 09:07:00;;;;;;;19.98;3.88;;;;;;;4.83;100.00;101896.66;5024749;28;20080;-78
2023/01/31 09:09:26;;;;;;;28.25;4.85;;;;;;;4.83;100.00;101883.97;5008743;28;20548;-78
2023/01/31 09:11:51;;;;;;;15.77;3.70;;;;;;;4.92;100.00;101885.41;5003707;28;20038;-78
2023/01/31 09:14:17;;;;;;;25.23;3.85;;;;;;;4.94;100.00;101868.16;5041696;28;20057;-78
2023/01/31 09:16:45;;;;;;;17.40;3.55;;;;;;;5.01;100.00;101855.22;5072003;28;20046;-78
2023/01/31 09:19:11;;;;;;;15.52;3.92;;;;;;;5.13;100.00;101860.16;5042063;28;20049;-78
2023/01/31 09:21:36;;;;;;;18.73;4.05;;;;;;;5.20;100.00;101863.53;5040208;28;20038;-78
2023/01/31 09:24:02;;;;;;;19.52;4.32;;;;;;;5.19;100.00;101848.16;5041003;28;20039;-78
2023/01/31 09:26:28;;;;;;;28.15;4.40;;;;;;;5.30;100.00;101859.47;5042545;28;20099;-76
2023/01/31 09:28:54;;;;;;;21.15;3.88;;;;;;;5.26;100.00;101866.00;5041852;28;20033;-76
2023/01/31 09:31:20;;;;;;;17.92;3.83;;;;;;;5.27;100.00;101864.16;5074755;28;20099;-78
2023/01/31 09:33:46;;;;;;;14.77;3.13;;;;;;;5.29;100.00;101857.69;5042317;28;20442;-76
2023/01/31 09:36:15;;;;;;;20.42;3.58;;;;;;;5.36;100.00;101858.31;5033568;28;20053;-76
2023/01/31 09:38:41;;;;;;;13.35;3.22;;;;;;;5.40;100.00;101853.69;5039347;28;20120;-76
2023/01/31 09:41:23;;;;;;;13.38;3.58;;;;;;;5.49;100.00;101835.16;5042666;28;20123;-76
2023/01/31 09:44:01;;;;;;;12.20;3.10;;;;;;;5.62;100.00;101832.78;5025961;28;20037;-76
2023/01/31 09:46:31;;;;;;;19.63;3.05;;;;;;;5.72;100.00;101827.84;5040829;28;20095;-76
2023/01/31 09:49:00;;;;;;;18.75;3.20;;;;;;;5.75;100.00;101824.13;5020987;28;20037;-76
2023/01/31 09:51:25;;;;;;;14.63;3.58;;;;;;;5.80;100.00;101839.25;5032021;28;20495;-79
2023/01/31 09:53:55;;;;;;;19.50;3.38;;;;;;;5.80;100.00;101841.13;5020396;28;20116;-76
2023/01/31 09:57:00;;;;;;;25.35;5.00;;;;;;;5.70;100.00;101841.50;5031738;28;20033;-76
2023/01/31 09:59:36;;;;;;;17.88;4.07;;;;;;;5.70;100.00;101846.06;5015120;28;20033;-77
2023/01/31 10:02:14;;;;;;;15.75;3.22;;;;;;;5.74;100.00;101850.44;5028546;28;20041;-77
2023/01/31 10:05:04;;;;;;;21.02;3.92;;;;;;;5.67;100.00;101829.88;5026515;28;20034;-77
2023/01/31 10:07:39;;;;;;;27.33;4.65;;;;;;;5.67;100.00;101828.06;5052291;28;20132;-77
2023/01/31 10:10:17;;;;;;;17.40;3.47;;;;;;;5.76;100.00;101831.34;5020652;28;20098;-77
2023/01/31 10:12:50;;;;;;;19.20;4.15;;;;;;;5.86;100.00;101832.69;5006982;28;20062;-77
2023/01/31 10:15:27;;;;;;;21.60;4.20;;;;;;;5.95;100.00;101821.44;5038059;28;20136;-77
2023/01/31 10:18:08;;;;;;;20.45;4.20;;;;;;;6.16;100.00;101827.75;5038714;28;20065;-77
2023/01/31 10:20:42;;;;;;;16.63;3.88;;;;;;;6.15;100.00;101819.66;5032054;28;20043;-77
2023/01/31 10:23:26;;;;;;;20.42;4.30;;;;;;;5.99;100.00;101823.09;5040802;28;20068;-77
2023/01/31 10:25:58;;;;;;;19.27;4.28;;;;;;;5.96;100.00;101831.38;5039799;28;20136;-77
2023/01/31 10:28:26;;;;;;;16.50;3.65;;;;;;;5.97;100.00;101814.13;5040860;28;20030;-77
2023/01/31 10:31:30;;;;;;;27.70;5.45;;;;;;;6.13;100.00;101818.84;5038880;28;20037;-77
2023/01/31 10:34:08;;;;;;;15.25;4.63;;;;;;;5.98;100.00;101815.88;5035518;28;20220;-77
2023/01/31 10:36:54;;;;;;;21.08;4.93;;;;;;;5.97;100.00;101821.38;5041265;28;20508;-76
2023/01/31 10:39:27;;;;;;;21.15;4.72;;;;;;;5.90;100.00;101831.59;5041589;28;20087;-78
2023/01/31 10:42:01;;;;;;;22.75;5.53;;;;;;;5.90;100.00;101842.47;5056918;28;20029;-77
2023/01/31 10:44:42;;;;;;;24.23;5.05;;;;;;;5.77;100.00;101830.38;5040408;28;20029;-77
2023/01/31 10:47:12;;;;;;;29.77;5.68;;;;;;;5.75;100.00;101830.44;5022492;28;20049;-77
2023/01/31 10:49:38;;;;;;;20.65;5.32;;;;;;;5.77;100.00;101838.53;5023672;28;20059;-77
2023/01/31 10:52:05;;;;;;;20.27;4.78;;;;;;;5.89;100.00;101847.03;5054865;28;20449;-77
2023/01/31 10:54:47;;;;;;;25.65;5.57;;;;;;;5.84;100.00;101837.31;5023093;28;20038;-77
2023/01/31 10:57:14;;;;;;;20.98;5.82;;;;;;;5.89;100.00;101829.84;5021875;28;20469;-77
2023/01/31 10:59:43;;;;;;;25.00;4.93;;;;;;;5.85;100.00;101820.94;5005225;28;20030;-77
2023/01/31 11:02:21;;;;;;;23.33;4.82;;;;;;;5.84;100.00;101818.31;5045766;28;20044;-77
2023/01/31 11:04:49;;;;;;;18.75;5.13;;;;;;;5.87;100.00;101820.84;5060401;28;20029;-76
2023/01/31 11:07:15;;;;;;;17.52;5.32;;;;;;;5.92;100.00;101807.97;5059307;28;20025;-76
2023/01/31 11:09:45;;;;;;;19.45;5.03;;;;;;;6.00;100.00;101805.84;5045457;28;20044;-77
2023/01/31 11:12:11;;;;;;;19.38;5.15;;;;;;;5.95;100.00;101813.28;5050218;28;20178;-76
2023/01/31 11:14:38;;;;;;;28.33;6.70;;;;;;;6.04;100.00;101812.00;5056089;28;20033;-77
2023/01/31 11:17:08;;;;;;;22.17;4.90;;;;;;;6.02;100.00;101801.19;5023968;28;20033;-77
2023/01/31 11:19:53;;;;;;;21.90;5.18;;;;;;;6.17;100.00;101806.91;5040853;28;20044;-77
2023/01/31 11:22:31;;;;;;;21.27;6.38;;;;;;;6.20;100.00;101807.66;5037632;28;20033;-77
2023/01/31 11:24:58;;;;;;;24.45;5.68;;;;;;;6.21;100.00;101803.09;5039276;28;20033;-77
2023/01/31 11:27:42;;;;;;;17.60;4.90;;;;;;;6.24;100.00;101786.63;5041163;28;20022;-77
2023/01/31 11:30:35;;;;;;;14.32;5.13;;;;;;;6.27;100.00;101769.31;5041141;28;20038;-76